This is the latest recevied weather packets stored in our database for station/object KE7JGM-4. If no packets are shown the sender has not sent any weather packets the latest 10 day(s).
| Time | Temp. | Humidity | Pressure | Rain* | Wind** | Luminosity | Snow |
|---|---|---|---|---|---|---|---|
| 1777740336 | 18.33° C | 26% | 1024.6 hPa | 0 mm | - | - | - |
| 1777734936 | 15° C | 29% | 1023.9 hPa | 0 mm | - | - | - |
| 1777731316 | 10.56° C | 36% | 1023 hPa | 0 mm | - | - | - |
| 1777729516 | 8.33° C | 41% | 1022.4 hPa | 0 mm | - | - | - |
| 1777725937 | 6.11° C | 47% | 1020.9 hPa | 0 mm | - | - | - |
| 1777723217 | 6.11° C | 46% | 1020.8 hPa | 0 mm | - | - | - |
| 1777722317 | 6.67° C | 45% | 1021.2 hPa | 0 mm | - | - | - |
| 1777717817 | 7.78° C | 41% | 1021.4 hPa | 0 mm | - | - | - |
| 1777716017 | 8.33° C | 39% | 1021.9 hPa | 0 mm | - | - | - |
| 1777715117 | 8.33° C | 39% | 1022.1 hPa | 0 mm | - | - | - |
| 1777713317 | 9.44° C | 36% | 1022.1 hPa | 0 mm | - | - | - |
| 1777709717 | 10.56° C | 33% | 1022.4 hPa | 0 mm | - | - | - |
| 1777700717 | 12.22° C | 28% | 1022.1 hPa | 0 mm | - | - | - |
| 1777693517 | 15.56° C | 22% | 1020.7 hPa | 0 mm | - | - | - |
| 1777678217 | 20° C | 17% | 1016.4 hPa | 0 mm | - | - | - |
| 1777676417 | 20.56° C | 16% | 1016.7 hPa | 0 mm | - | - | - |
| 1777673717 | 21.11° C | 16% | 1017.5 hPa | 0 mm | - | - | - |
| 1777672817 | 21.11° C | 16% | 1017.6 hPa | 0 mm | - | - | - |
| 1777662016 | 19.44° C | 18% | 1020.5 hPa | 0 mm | - | - | - |
| 1777658416 | 19.44° C | 20% | 1021.5 hPa | 0 mm | - | - | - |
| 1777656616 | 17.78° C | 21% | 1021.2 hPa | 0 mm | - | - | - |
| 1777653016 | 17.22° C | 22% | 1020.6 hPa | 0 mm | - | - | - |
| 1777647616 | 13.89° C | 27% | 1019.8 hPa | 0 mm | - | - | - |
| 1777638617 | 5.56° C | 42% | 1016.6 hPa | 0 mm | - | - | - |
| 1777634117 | 6.67° C | 36% | 1016.8 hPa | 0 mm | - | - | - |
* Rain latest hour (hover to see other rain measurements)
** Current wind speed in m/s (hover to see current wind gust speed)